sensor_id;sensor_type;location;lat;lon;timestamp;pressure;altitude;pressure_sealevel;temperature;humidity
72636;BME280;60679;48.888;15.544;2023-02-02T00:01:50;95879.78;;;-0.22;nan
72636;BME280;60679;48.888;15.544;2023-02-02T00:04:19;95875.81;;;-0.26;nan
72636;BME280;60679;48.888;15.544;2023-02-02T00:06:45;95883.78;;;-0.26;nan
72636;BME280;60679;48.888;15.544;2023-02-02T00:09:14;95892.91;;;-0.28;nan
72636;BME280;60679;48.888;15.544;2023-02-02T00:11:40;95918.09;;;-0.24;nan
72636;BME280;60679;48.888;15.544;2023-02-02T00:14:06;95912.63;;;-0.23;nan
72636;BME280;60679;48.888;15.544;2023-02-02T00:16:44;95904.31;;;-0.20;nan
72636;BME280;60679;48.888;15.544;2023-02-02T00:19:16;95901.31;;;-0.17;nan
72636;BME280;60679;48.888;15.544;2023-02-02T00:21:42;95918.75;;;-0.14;nan
72636;BME280;60679;48.888;15.544;2023-02-02T00:24:10;95907.47;;;-0.16;nan
72636;BME280;60679;48.888;15.544;2023-02-02T00:26:37;95896.69;;;-0.15;nan
72636;BME280;60679;48.888;15.544;2023-02-02T00:29:04;95916.44;;;-0.09;nan
72636;BME280;60679;48.888;15.544;2023-02-02T00:31:30;95916.56;;;-0.11;nan
72636;BME280;60679;48.888;15.544;2023-02-02T00:33:55;95908.63;;;-0.11;nan
72636;BME280;60679;48.888;15.544;2023-02-02T00:36:21;95904.47;;;-0.13;nan
72636;BME280;60679;48.888;15.544;2023-02-02T00:38:48;95901.69;;;-0.12;nan
72636;BME280;60679;48.888;15.544;2023-02-02T00:41:14;95910.28;;;-0.10;nan
72636;BME280;60679;48.888;15.544;2023-02-02T00:43:40;95913.28;;;-0.13;nan
72636;BME280;60679;48.888;15.544;2023-02-02T00:46:16;95913.94;;;-0.11;nan
72636;BME280;60679;48.888;15.544;2023-02-02T00:48:42;95921.56;;;-0.08;nan
72636;BME280;60679;48.888;15.544;2023-02-02T00:51:08;95917.41;;;-0.10;nan
72636;BME280;60679;48.888;15.544;2023-02-02T00:53:33;95924.22;;;-0.08;nan
72636;BME280;60679;48.888;15.544;2023-02-02T00:55:59;95927.03;;;-0.09;nan
72636;BME280;60679;48.888;15.544;2023-02-02T00:58:25;95922.22;;;-0.14;nan
72636;BME280;60679;48.888;15.544;2023-02-02T01:00:51;95923.72;;;-0.19;nan
72636;BME280;60679;48.888;15.544;2023-02-02T01:03:16;95928.88;;;-0.26;nan
72636;BME280;60679;48.888;15.544;2023-02-02T01:05:42;95940.13;;;-0.24;nan
72636;BME280;60679;48.888;15.544;2023-02-02T01:08:08;95932.84;;;-0.22;nan
72636;BME280;60679;48.888;15.544;2023-02-02T01:10:33;95940.47;;;-0.19;nan
72636;BME280;60679;48.888;15.544;2023-02-02T01:13:00;95935.16;;;-0.19;nan
72636;BME280;60679;48.888;15.544;2023-02-02T01:15:25;95933.16;;;-0.25;nan
72636;BME280;60679;48.888;15.544;2023-02-02T01:17:51;95930.34;;;-0.39;nan
72636;BME280;60679;48.888;15.544;2023-02-02T01:20:19;95939.78;;;-0.53;nan
72636;BME280;60679;48.888;15.544;2023-02-02T01:22:45;95942.09;;;-0.58;nan
72636;BME280;60679;48.888;15.544;2023-02-02T01:25:14;95953.84;;;-0.61;nan
72636;BME280;60679;48.888;15.544;2023-02-02T01:27:40;95955.47;;;-0.68;nan
72636;BME280;60679;48.888;15.544;2023-02-02T01:30:06;95948.34;;;-0.67;nan
72636;BME280;60679;48.888;15.544;2023-02-02T01:32:32;95960.97;;;-0.61;nan
72636;BME280;60679;48.888;15.544;2023-02-02T01:34:57;95958.50;;;-0.46;nan
72636;BME280;60679;48.888;15.544;2023-02-02T01:37:23;95948.41;;;-0.43;nan
72636;BME280;60679;48.888;15.544;2023-02-02T01:39:48;95955.38;;;-0.34;nan
72636;BME280;60679;48.888;15.544;2023-02-02T01:42:19;95957.38;;;-0.28;nan
72636;BME280;60679;48.888;15.544;2023-02-02T01:47:18;95958.19;;;-0.11;nan
72636;BME280;60679;48.888;15.544;2023-02-02T01:49:45;95965.81;;;-0.08;nan
72636;BME280;60679;48.888;15.544;2023-02-02T01:52:14;95971.13;;;-0.08;nan
72636;BME280;60679;48.888;15.544;2023-02-02T01:54:49;95973.31;;;-0.12;nan
72636;BME280;60679;48.888;15.544;2023-02-02T01:57:22;95975.28;;;-0.22;nan
72636;BME280;60679;48.888;15.544;2023-02-02T01:59:54;95979.91;;;-0.32;nan
72636;BME280;60679;48.888;15.544;2023-02-02T02:02:21;95980.06;;;-0.41;nan
72636;BME280;60679;48.888;15.544;2023-02-02T02:04:49;95981.41;;;-0.45;nan
72636;BME280;60679;48.888;15.544;2023-02-02T02:07:15;95984.00;;;-0.53;nan
72636;BME280;60679;48.888;15.544;2023-02-02T02:09:41;95978.53;;;-0.60;nan
72636;BME280;60679;48.888;15.544;2023-02-02T02:12:14;95982.50;;;-0.64;nan
72636;BME280;60679;48.888;15.544;2023-02-02T02:14:44;95970.06;;;-0.72;nan
72636;BME280;60679;48.888;15.544;2023-02-02T02:20:50;95971.38;;;-0.68;nan
72636;BME280;60679;48.888;15.544;2023-02-02T02:24:11;95963.09;;;-0.73;nan
72636;BME280;60679;48.888;15.544;2023-02-02T02:27:41;95960.44;;;-0.73;nan
72636;BME280;60679;48.888;15.544;2023-02-02T02:33:16;95955.97;;;-0.72;nan
72636;BME280;60679;48.888;15.544;2023-02-02T02:38:53;95960.81;;;-0.60;nan
72636;BME280;60679;48.888;15.544;2023-02-02T02:41:27;95958.00;;;-0.50;nan
72636;BME280;60679;48.888;15.544;2023-02-02T02:44:03;95950.41;;;-0.37;nan
72636;BME280;60679;48.888;15.544;2023-02-02T02:46:31;95952.72;;;-0.34;nan
72636;BME280;60679;48.888;15.544;2023-02-02T02:48:57;95960.84;;;-0.19;nan
72636;BME280;60679;48.888;15.544;2023-02-02T02:51:54;95969.81;;;-0.12;nan
72636;BME280;60679;48.888;15.544;2023-02-02T02:56:56;95966.66;;;0.00;nan
72636;BME280;60679;48.888;15.544;2023-02-02T02:59:34;95966.00;;;0.07;nan
72636;BME280;60679;48.888;15.544;2023-02-02T03:04:36;95964.00;;;0.09;nan
72636;BME280;60679;48.888;15.544;2023-02-02T03:07:09;95957.38;;;0.05;nan
72636;BME280;60679;48.888;15.544;2023-02-02T03:09:40;95962.34;;;0.08;nan
72636;BME280;60679;48.888;15.544;2023-02-02T03:12:09;95964.69;;;0.11;nan
72636;BME280;60679;48.888;15.544;2023-02-02T03:14:36;95961.00;;;0.04;nan
72636;BME280;60679;48.888;15.544;2023-02-02T03:17:02;95968.00;;;0.05;nan
72636;BME280;60679;48.888;15.544;2023-02-02T03:19:27;95966.66;;;0.09;nan
72636;BME280;60679;48.888;15.544;2023-02-02T03:21:53;95958.19;;;0.13;nan
72636;BME280;60679;48.888;15.544;2023-02-02T03:24:18;95962.50;;;0.14;nan
72636;BME280;60679;48.888;15.544;2023-02-02T03:26:44;95954.38;;;0.16;nan
72636;BME280;60679;48.888;15.544;2023-02-02T03:29:10;95959.69;;;0.16;nan
72636;BME280;60679;48.888;15.544;2023-02-02T03:31:36;95957.03;;;0.16;nan
72636;BME280;60679;48.888;15.544;2023-02-02T03:34:02;95951.22;;;0.12;nan
72636;BME280;60679;48.888;15.544;2023-02-02T03:36:28;95950.06;;;0.15;nan
72636;BME280;60679;48.888;15.544;2023-02-02T03:38:53;95949.06;;;0.16;nan
72636;BME280;60679;48.888;15.544;2023-02-02T03:41:19;95951.88;;;0.14;nan
72636;BME280;60679;48.888;15.544;2023-02-02T03:43:44;95957.03;;;0.16;nan
72636;BME280;60679;48.888;15.544;2023-02-02T03:46:10;95960.53;;;0.16;nan
72636;BME280;60679;48.888;15.544;2023-02-02T03:48:36;95959.16;;;0.20;nan
72636;BME280;60679;48.888;15.544;2023-02-02T03:51:11;95955.19;;;0.24;nan
72636;BME280;60679;48.888;15.544;2023-02-02T03:53:37;95957.69;;;0.26;nan
72636;BME280;60679;48.888;15.544;2023-02-02T03:56:03;95958.34;;;0.28;nan
72636;BME280;60679;48.888;15.544;2023-02-02T03:58:29;95969.13;;;0.26;nan
72636;BME280;60679;48.888;15.544;2023-02-02T04:01:02;95970.63;;;0.29;nan
72636;BME280;60679;48.888;15.544;2023-02-02T04:03:29;95971.94;;;0.33;nan
72636;BME280;60679;48.888;15.544;2023-02-02T04:05:54;95978.09;;;0.33;nan
72636;BME280;60679;48.888;15.544;2023-02-02T04:08:20;95967.28;;;0.35;nan
72636;BME280;60679;48.888;15.544;2023-02-02T04:10:45;95967.63;;;0.32;nan
72636;BME280;60679;48.888;15.544;2023-02-02T04:13:11;95968.97;;;0.28;nan
72636;BME280;60679;48.888;15.544;2023-02-02T04:15:36;95969.31;;;0.25;nan
72636;BME280;60679;48.888;15.544;2023-02-02T04:18:02;95964.34;;;0.22;nan
72636;BME280;60679;48.888;15.544;2023-02-02T04:20:27;95956.84;;;0.17;nan
72636;BME280;60679;48.888;15.544;2023-02-02T04:22:53;95957.38;;;0.13;nan
72636;BME280;60679;48.888;15.544;2023-02-02T04:25:19;95956.38;;;0.14;nan
72636;BME280;60679;48.888;15.544;2023-02-02T04:27:45;95950.06;;;0.15;nan
72636;BME280;60679;48.888;15.544;2023-02-02T04:30:13;95950.56;;;0.18;nan
72636;BME280;60679;48.888;15.544;2023-02-02T04:32:39;95952.38;;;0.18;nan
72636;BME280;60679;48.888;15.544;2023-02-02T04:35:05;95953.72;;;0.14;nan
72636;BME280;60679;48.888;15.544;2023-02-02T04:37:31;95959.50;;;0.17;nan
72636;BME280;60679;48.888;15.544;2023-02-02T04:39:56;95959.19;;;0.12;nan
72636;BME280;60679;48.888;15.544;2023-02-02T04:42:22;95957.19;;;0.06;nan
72636;BME280;60679;48.888;15.544;2023-02-02T04:44:47;95968.16;;;0.03;nan
72636;BME280;60679;48.888;15.544;2023-02-02T04:47:13;95965.69;;;-0.07;nan
72636;BME280;60679;48.888;15.544;2023-02-02T04:49:38;95963.03;;;-0.15;nan
72636;BME280;60679;48.888;15.544;2023-02-02T04:52:04;95963.84;;;-0.22;nan
72636;BME280;60679;48.888;15.544;2023-02-02T04:54:31;95964.50;;;-0.28;nan
72636;BME280;60679;48.888;15.544;2023-02-02T04:56:57;95974.44;;;-0.38;nan
72636;BME280;60679;48.888;15.544;2023-02-02T04:59:22;95965.16;;;-0.42;nan
72636;BME280;60679;48.888;15.544;2023-02-02T05:01:48;95969.78;;;-0.52;nan
72636;BME280;60679;48.888;15.544;2023-02-02T05:04:15;95969.25;;;-0.56;nan
72636;BME280;60679;48.888;15.544;2023-02-02T05:06:41;95975.25;;;-0.54;nan
72636;BME280;60679;48.888;15.544;2023-02-02T05:09:12;95970.59;;;-0.52;nan
72636;BME280;60679;48.888;15.544;2023-02-02T05:11:39;95975.72;;;-0.59;nan
72636;BME280;60679;48.888;15.544;2023-02-02T05:14:08;95975.56;;;-0.65;nan
72636;BME280;60679;48.888;15.544;2023-02-02T05:16:34;95986.94;;;-0.73;nan
72636;BME280;60679;48.888;15.544;2023-02-02T05:19:14;95991.41;;;-0.81;nan
72636;BME280;60679;48.888;15.544;2023-02-02T05:21:42;95998.69;;;-0.83;nan
72636;BME280;60679;48.888;15.544;2023-02-02T05:24:10;96001.16;;;-0.82;nan
72636;BME280;60679;48.888;15.544;2023-02-02T05:26:36;95999.88;;;-0.78;nan
72636;BME280;60679;48.888;15.544;2023-02-02T05:29:01;96002.19;;;-0.75;nan
72636;BME280;60679;48.888;15.544;2023-02-02T05:31:27;96007.84;;;-0.70;nan
72636;BME280;60679;48.888;15.544;2023-02-02T05:33:54;96010.69;;;-0.63;nan
72636;BME280;60679;48.888;15.544;2023-02-02T05:36:20;96014.31;;;-0.56;nan
72636;BME280;60679;48.888;15.544;2023-02-02T05:38:46;96016.34;;;-0.50;nan
72636;BME280;60679;48.888;15.544;2023-02-02T05:41:11;96023.50;;;-0.42;nan
72636;BME280;60679;48.888;15.544;2023-02-02T05:43:37;96031.47;;;-0.34;nan
72636;BME280;60679;48.888;15.544;2023-02-02T05:46:02;96028.97;;;-0.28;nan
72636;BME280;60679;48.888;15.544;2023-02-02T05:48:28;96026.69;;;-0.23;nan
72636;BME280;60679;48.888;15.544;2023-02-02T05:53:29;96027.53;;;-0.14;nan
72636;BME280;60679;48.888;15.544;2023-02-02T05:55:58;96033.31;;;-0.11;nan
72636;BME280;60679;48.888;15.544;2023-02-02T05:58:26;96038.47;;;-0.17;nan
72636;BME280;60679;48.888;15.544;2023-02-02T06:00:52;96042.41;;;-0.29;nan
72636;BME280;60679;48.888;15.544;2023-02-02T06:03:18;96049.88;;;-0.33;nan
72636;BME280;60679;48.888;15.544;2023-02-02T06:05:43;96062.28;;;-0.33;nan
72636;BME280;60679;48.888;15.544;2023-02-02T06:08:09;96065.31;;;-0.28;nan
72636;BME280;60679;48.888;15.544;2023-02-02T06:10:38;96059.50;;;-0.24;nan
72636;BME280;60679;48.888;15.544;2023-02-02T06:13:03;96063.16;;;-0.17;nan
72636;BME280;60679;48.888;15.544;2023-02-02T06:15:29;96062.50;;;-0.11;nan
72636;BME280;60679;48.888;15.544;2023-02-02T06:17:55;96071.63;;;-0.05;nan
72636;BME280;60679;48.888;15.544;2023-02-02T06:20:22;96075.63;;;-0.01;nan
72636;BME280;60679;48.888;15.544;2023-02-02T08:02:09;96115.38;;;1.83;nan
72636;BME280;60679;48.888;15.544;2023-02-02T08:04:34;96113.97;;;1.95;nan
72636;BME280;60679;48.888;15.544;2023-02-02T08:07:00;96114.19;;;2.16;nan
72636;BME280;60679;48.888;15.544;2023-02-02T08:09:25;96113.44;;;2.30;nan
72636;BME280;60679;48.888;15.544;2023-02-02T08:11:51;96118.06;;;2.37;nan
72636;BME280;60679;48.888;15.544;2023-02-02T08:14:16;96121.97;;;2.49;nan
72636;BME280;60679;48.888;15.544;2023-02-02T08:16:42;96128.66;;;2.45;nan
72636;BME280;60679;48.888;15.544;2023-02-02T08:19:09;96118.66;;;2.47;nan
72636;BME280;60679;48.888;15.544;2023-02-02T08:21:35;96130.78;;;2.49;nan
72636;BME280;60679;48.888;15.544;2023-02-02T08:24:01;96137.56;;;2.37;nan
72636;BME280;60679;48.888;15.544;2023-02-02T08:26:29;96129.06;;;2.33;nan
72636;BME280;60679;48.888;15.544;2023-02-02T08:29:01;96132.38;;;2.36;nan
72636;BME280;60679;48.888;15.544;2023-02-02T08:31:29;96131.84;;;2.40;nan
72636;BME280;60679;48.888;15.544;2023-02-02T08:33:56;96135.81;;;2.44;nan
72636;BME280;60679;48.888;15.544;2023-02-02T08:36:26;96142.56;;;2.55;nan
72636;BME280;60679;48.888;15.544;2023-02-02T08:38:52;96141.88;;;2.61;nan
72636;BME280;60679;48.888;15.544;2023-02-02T08:41:20;96142.41;;;2.56;nan
72636;BME280;60679;48.888;15.544;2023-02-02T08:43:47;96150.06;;;2.59;nan
72636;BME280;60679;48.888;15.544;2023-02-02T08:46:14;96152.38;;;2.62;nan
72636;BME280;60679;48.888;15.544;2023-02-02T08:48:40;96152.19;;;2.64;nan
72636;BME280;60679;48.888;15.544;2023-02-02T08:51:07;96153.94;;;2.71;nan
72636;BME280;60679;48.888;15.544;2023-02-02T08:53:34;96162.34;;;2.83;nan
72636;BME280;60679;48.888;15.544;2023-02-02T08:56:01;96157.25;;;2.96;nan
72636;BME280;60679;48.888;15.544;2023-02-02T08:58:29;96148.84;;;3.07;nan
72636;BME280;60679;48.888;15.544;2023-02-02T09:03:31;96162.31;;;3.43;nan
72636;BME280;60679;48.888;15.544;2023-02-02T09:05:56;96166.56;;;3.52;nan
72636;BME280;60679;48.888;15.544;2023-02-02T09:08:22;96155.53;;;3.55;nan
72636;BME280;60679;48.888;15.544;2023-02-02T09:10:47;96160.94;;;3.62;nan
72636;BME280;60679;48.888;15.544;2023-02-02T09:13:13;96161.16;;;3.60;nan
72636;BME280;60679;48.888;15.544;2023-02-02T09:15:38;96172.09;;;3.65;nan
72636;BME280;60679;48.888;15.544;2023-02-02T09:18:04;96166.56;;;3.81;nan
72636;BME280;60679;48.888;15.544;2023-02-02T09:20:29;96169.97;;;3.90;nan
72636;BME280;60679;48.888;15.544;2023-02-02T09:22:56;96179.66;;;3.91;nan
72636;BME280;60679;48.888;15.544;2023-02-02T09:25:22;96171.75;;;3.97;nan
72636;BME280;60679;48.888;15.544;2023-02-02T09:27:49;96170.41;;;4.23;nan
72636;BME280;60679;48.888;15.544;2023-02-02T09:30:15;96171.66;;;4.41;nan
72636;BME280;60679;48.888;15.544;2023-02-02T09:32:41;96172.56;;;4.84;nan
72636;BME280;60679;48.888;15.544;2023-02-02T09:35:07;96177.06;;;4.62;nan
72636;BME280;60679;48.888;15.544;2023-02-02T09:37:33;96184.78;;;4.57;nan
72636;BME280;60679;48.888;15.544;2023-02-02T09:39:59;96179.31;;;4.44;nan
72636;BME280;60679;48.888;15.544;2023-02-02T09:43:15;96172.28;;;4.43;nan
72636;BME280;60679;48.888;15.544;2023-02-02T09:46:15;96182.66;;;4.32;nan
72636;BME280;60679;48.888;15.544;2023-02-02T09:48:37;96184.22;;;4.26;nan
72636;BME280;60679;48.888;15.544;2023-02-02T09:51:15;96196.41;;;4.29;nan
72636;BME280;60679;48.888;15.544;2023-02-02T09:53:58;96198.50;;;4.33;nan
72636;BME280;60679;48.888;15.544;2023-02-02T09:56:39;96186.47;;;4.58;nan
72636;BME280;60679;48.888;15.544;2023-02-02T09:59:14;96187.88;;;4.76;nan
72636;BME280;60679;48.888;15.544;2023-02-02T10:01:42;96194.19;;;4.89;nan
72636;BME280;60679;48.888;15.544;2023-02-02T10:11:59;96194.41;;;5.09;nan
72636;BME280;60679;48.888;15.544;2023-02-02T10:17:05;96207.41;;;5.61;nan
72636;BME280;60679;48.888;15.544;2023-02-02T10:19:35;96205.44;;;5.69;nan
72636;BME280;60679;48.888;15.544;2023-02-02T10:22:12;96209.69;;;5.36;nan
72636;BME280;60679;48.888;15.544;2023-02-02T10:24:40;96209.38;;;5.24;nan
72636;BME280;60679;48.888;15.544;2023-02-02T10:27:13;96204.81;;;5.25;nan
72636;BME280;60679;48.888;15.544;2023-02-02T10:30:00;96211.69;;;5.28;nan
72636;BME280;60679;48.888;15.544;2023-02-02T10:32:54;96226.81;;;5.20;nan
72636;BME280;60679;48.888;15.544;2023-02-02T10:35:41;96219.78;;;4.77;nan
72636;BME280;60679;48.888;15.544;2023-02-02T10:44:00;96217.75;;;4.43;nan
72636;BME280;60679;48.888;15.544;2023-02-02T10:46:52;96215.88;;;4.58;nan
72636;BME280;60679;48.888;15.544;2023-02-02T10:54:55;96224.19;;;4.49;nan
72636;BME280;60679;48.888;15.544;2023-02-02T11:00:34;96222.56;;;4.33;nan
72636;BME280;60679;48.888;15.544;2023-02-02T11:09:49;96226.91;;;4.05;nan
72636;BME280;60679;48.888;15.544;2023-02-02T11:12:31;96216.47;;;4.25;nan
72636;BME280;60679;48.888;15.544;2023-02-02T11:15:08;96218.78;;;4.28;nan
72636;BME280;60679;48.888;15.544;2023-02-02T11:17:46;96222.03;;;4.23;nan
72636;BME280;60679;48.888;15.544;2023-02-02T11:20:41;96227.75;;;4.20;nan
72636;BME280;60679;48.888;15.544;2023-02-02T11:23:16;96229.38;;;4.06;nan
72636;BME280;60679;48.888;15.544;2023-02-02T11:25:43;96227.09;;;4.03;nan
72636;BME280;60679;48.888;15.544;2023-02-02T11:28:26;96226.72;;;4.21;nan
72636;BME280;60679;48.888;15.544;2023-02-02T11:30:55;96224.00;;;4.50;nan
72636;BME280;60679;48.888;15.544;2023-02-02T11:33:34;96219.38;;;4.59;nan
72636;BME280;60679;48.888;15.544;2023-02-02T11:36:06;96219.94;;;4.54;nan
72636;BME280;60679;48.888;15.544;2023-02-02T11:38:44;96225.63;;;4.66;nan
72636;BME280;60679;48.888;15.544;2023-02-02T11:41:10;96207.78;;;4.88;nan
72636;BME280;60679;48.888;15.544;2023-02-02T11:43:56;96213.69;;;4.83;nan
72636;BME280;60679;48.888;15.544;2023-02-02T11:46:24;96206.41;;;4.77;nan
72636;BME280;60679;48.888;15.544;2023-02-02T11:49:05;96209.75;;;4.79;nan
72636;BME280;60679;48.888;15.544;2023-02-02T11:51:37;96206.13;;;5.08;nan
72636;BME280;60679;48.888;15.544;2023-02-02T11:54:15;96205.47;;;4.85;nan
72636;BME280;60679;48.888;15.544;2023-02-02T11:57:29;96204.56;;;4.78;nan
72636;BME280;60679;48.888;15.544;2023-02-02T12:02:48;96194.56;;;4.65;nan
72636;BME280;60679;48.888;15.544;2023-02-02T12:07:49;96191.53;;;4.68;nan
72636;BME280;60679;48.888;15.544;2023-02-02T12:10:33;96185.72;;;4.64;nan
72636;BME280;60679;48.888;15.544;2023-02-02T12:14:10;96186.72;;;4.63;nan
72636;BME280;60679;48.888;15.544;2023-02-02T12:16:21;96185.97;;;4.70;nan
72636;BME280;60679;48.888;15.544;2023-02-02T12:21:43;96186.81;;;4.70;nan
72636;BME280;60679;48.888;15.544;2023-02-02T12:24:26;96177.94;;;4.70;nan
72636;BME280;60679;48.888;15.544;2023-02-02T12:32:41;96178.91;;;4.83;nan
72636;BME280;60679;48.888;15.544;2023-02-02T12:38:40;96178.84;;;4.77;nan
72636;BME280;60679;48.888;15.544;2023-02-02T12:53:14;96189.88;;;4.52;nan
72636;BME280;60679;48.888;15.544;2023-02-02T13:04:31;96191.69;;;4.66;nan
72636;BME280;60679;48.888;15.544;2023-02-02T13:12:33;96192.28;;;4.62;nan
72636;BME280;60679;48.888;15.544;2023-02-02T13:15:08;96192.53;;;4.67;nan
72636;BME280;60679;48.888;15.544;2023-02-02T13:17:42;96193.16;;;4.69;nan
72636;BME280;60679;48.888;15.544;2023-02-02T13:20:57;96188.47;;;4.71;nan
72636;BME280;60679;48.888;15.544;2023-02-02T13:23:19;96189.94;;;4.74;nan
72636;BME280;60679;48.888;15.544;2023-02-02T13:26:21;96201.38;;;4.68;nan
72636;BME280;60679;48.888;15.544;2023-02-02T13:29:04;96196.91;;;4.53;nan
72636;BME280;60679;48.888;15.544;2023-02-02T13:31:49;96201.31;;;4.46;nan
72636;BME280;60679;48.888;15.544;2023-02-02T13:34:26;96209.81;;;4.35;nan
72636;BME280;60679;48.888;15.544;2023-02-02T13:36:59;96205.16;;;4.08;nan
72636;BME280;60679;48.888;15.544;2023-02-02T13:49:02;96222.03;;;3.05;nan
72636;BME280;60679;48.888;15.544;2023-02-02T14:00:42;96232.50;;;3.29;nan
72636;BME280;60679;48.888;15.544;2023-02-02T14:06:05;96250.63;;;3.11;nan
72636;BME280;60679;48.888;15.544;2023-02-02T14:08:31;96252.16;;;3.13;nan
72636;BME280;60679;48.888;15.544;2023-02-02T14:11:00;96254.97;;;3.12;nan
72636;BME280;60679;48.888;15.544;2023-02-02T14:13:46;96261.78;;;2.91;nan
72636;BME280;60679;48.888;15.544;2023-02-02T14:19:01;96258.69;;;2.80;nan
72636;BME280;60679;48.888;15.544;2023-02-02T14:34:42;96273.88;;;2.41;nan
72636;BME280;60679;48.888;15.544;2023-02-02T14:45:36;96291.81;;;2.55;nan
72636;BME280;60679;48.888;15.544;2023-02-02T14:48:22;96301.09;;;2.28;nan
72636;BME280;60679;48.888;15.544;2023-02-02T14:51:01;96296.81;;;2.11;nan
72636;BME280;60679;48.888;15.544;2023-02-02T14:53:55;96300.19;;;1.97;nan
72636;BME280;60679;48.888;15.544;2023-02-02T14:56:55;96307.84;;;1.84;nan
72636;BME280;60679;48.888;15.544;2023-02-02T14:59:33;96310.69;;;1.74;nan
72636;BME280;60679;48.888;15.544;2023-02-02T15:02:01;96311.53;;;1.74;nan
72636;BME280;60679;48.888;15.544;2023-02-02T15:04:31;96327.34;;;1.68;nan
72636;BME280;60679;48.888;15.544;2023-02-02T15:09:56;96331.00;;;1.43;nan
72636;BME280;60679;48.888;15.544;2023-02-02T15:12:31;96324.84;;;1.34;nan
72636;BME280;60679;48.888;15.544;2023-02-02T15:15:20;96332.81;;;1.26;nan
72636;BME280;60679;48.888;15.544;2023-02-02T15:17:57;96326.31;;;1.12;nan
72636;BME280;60679;48.888;15.544;2023-02-02T15:20:34;96329.63;;;1.06;nan
72636;BME280;60679;48.888;15.544;2023-02-02T15:28:55;96345.16;;;0.77;nan
72636;BME280;60679;48.888;15.544;2023-02-02T15:31:40;96346.31;;;0.67;nan
72636;BME280;60679;48.888;15.544;2023-02-02T15:34:18;96350.13;;;0.64;nan
72636;BME280;60679;48.888;15.544;2023-02-02T15:36:51;96345.13;;;0.61;nan
72636;BME280;60679;48.888;15.544;2023-02-02T15:39:54;96354.38;;;0.57;nan
72636;BME280;60679;48.888;15.544;2023-02-02T15:42:39;96356.88;;;0.50;nan
72636;BME280;60679;48.888;15.544;2023-02-02T15:45:39;96356.50;;;0.45;nan
72636;BME280;60679;48.888;15.544;2023-02-02T15:48:19;96376.41;;;0.41;nan
72636;BME280;60679;48.888;15.544;2023-02-02T15:50:46;96386.38;;;0.39;nan
72636;BME280;60679;48.888;15.544;2023-02-02T15:56:29;96391.78;;;0.30;nan
72636;BME280;60679;48.888;15.544;2023-02-02T15:59:18;96393.38;;;0.23;nan
72636;BME280;60679;48.888;15.544;2023-02-02T16:01:52;96403.81;;;0.16;nan
72636;BME280;60679;48.888;15.544;2023-02-02T16:04:26;96416.56;;;0.13;nan
72636;BME280;60679;48.888;15.544;2023-02-02T16:06:56;96420.38;;;0.10;nan
72636;BME280;60679;48.888;15.544;2023-02-02T16:09:24;96424.63;;;0.03;nan
72636;BME280;60679;48.888;15.544;2023-02-02T16:11:51;96432.06;;;-0.01;nan
72636;BME280;60679;48.888;15.544;2023-02-02T16:14:17;96433.66;;;-0.08;nan
72636;BME280;60679;48.888;15.544;2023-02-02T16:16:43;96443.31;;;-0.07;nan
72636;BME280;60679;48.888;15.544;2023-02-02T16:19:19;96444.56;;;0.07;nan
72636;BME280;60679;48.888;15.544;2023-02-02T16:21:52;96446.38;;;0.07;nan
72636;BME280;60679;48.888;15.544;2023-02-02T16:24:28;96451.16;;;0.03;nan
72636;BME280;60679;48.888;15.544;2023-02-02T16:26:58;96457.31;;;0.04;nan
72636;BME280;60679;48.888;15.544;2023-02-02T16:29:27;96459.66;;;0.07;nan
72636;BME280;60679;48.888;15.544;2023-02-02T16:31:54;96464.66;;;0.10;nan
72636;BME280;60679;48.888;15.544;2023-02-02T16:37:27;96458.44;;;0.01;nan
72636;BME280;60679;48.888;15.544;2023-02-02T16:39:54;96457.78;;;-0.01;nan
72636;BME280;60679;48.888;15.544;2023-02-02T16:42:29;96468.69;;;-0.04;nan
72636;BME280;60679;48.888;15.544;2023-02-02T16:45:04;96470.16;;;-0.10;nan
72636;BME280;60679;48.888;15.544;2023-02-02T16:47:32;96475.59;;;-0.11;nan
72636;BME280;60679;48.888;15.544;2023-02-02T16:55:17;96479.97;;;-0.20;nan
72636;BME280;60679;48.888;15.544;2023-02-02T16:57:45;96493.25;;;-0.20;nan
72636;BME280;60679;48.888;15.544;2023-02-02T17:00:18;96491.06;;;-0.24;nan
72636;BME280;60679;48.888;15.544;2023-02-02T17:02:47;96502.22;;;-0.21;nan
72636;BME280;60679;48.888;15.544;2023-02-02T17:05:47;96498.72;;;-0.21;nan
72636;BME280;60679;48.888;15.544;2023-02-02T17:08:35;96502.97;;;-0.28;nan
72636;BME280;60679;48.888;15.544;2023-02-02T17:11:06;96511.75;;;-0.28;nan
72636;BME280;60679;48.888;15.544;2023-02-02T17:13:40;96521.09;;;-0.24;nan
72636;BME280;60679;48.888;15.544;2023-02-02T17:16:10;96522.06;;;-0.25;nan
72636;BME280;60679;48.888;15.544;2023-02-02T17:18:36;96521.09;;;-0.24;nan
72636;BME280;60679;48.888;15.544;2023-02-02T17:21:02;96532.00;;;-0.27;nan
72636;BME280;60679;48.888;15.544;2023-02-02T17:23:38;96543.44;;;-0.26;nan
72636;BME280;60679;48.888;15.544;2023-02-02T17:26:06;96551.03;;;-0.31;nan
72636;BME280;60679;48.888;15.544;2023-02-02T17:28:32;96560.81;;;-0.32;nan
72636;BME280;60679;48.888;15.544;2023-02-02T17:31:12;96569.19;;;-0.36;nan
72636;BME280;60679;48.888;15.544;2023-02-02T17:33:38;96575.03;;;-0.33;nan
72636;BME280;60679;48.888;15.544;2023-02-02T17:36:04;96577.56;;;-0.31;nan
72636;BME280;60679;48.888;15.544;2023-02-02T17:38:30;96573.91;;;-0.30;nan
72636;BME280;60679;48.888;15.544;2023-02-02T17:41:02;96581.84;;;-0.30;nan
72636;BME280;60679;48.888;15.544;2023-02-02T17:43:29;96585.91;;;-0.26;nan
72636;BME280;60679;48.888;15.544;2023-02-02T17:45:58;96580.44;;;-0.25;nan
72636;BME280;60679;48.888;15.544;2023-02-02T17:48:36;96591.88;;;-0.24;nan
72636;BME280;60679;48.888;15.544;2023-02-02T17:51:01;96592.72;;;-0.24;nan
72636;BME280;60679;48.888;15.544;2023-02-02T17:53:30;96608.25;;;-0.29;nan
72636;BME280;60679;48.888;15.544;2023-02-02T17:55:56;96609.53;;;-0.33;nan
72636;BME280;60679;48.888;15.544;2023-02-02T17:58:22;96605.25;;;-0.43;nan
72636;BME280;60679;48.888;15.544;2023-02-02T18:00:51;96613.06;;;-0.42;nan
72636;BME280;60679;48.888;15.544;2023-02-02T18:03:29;96611.69;;;-0.46;nan